createdAt,value
2023-03-04T00:00:01.798Z,85.3
2023-03-04T00:02:03.542Z,85.4
2023-03-04T00:03:02.379Z,85.5
2023-03-04T00:04:03.460Z,85.5
2023-03-04T00:05:02.230Z,85.5
2023-03-04T00:06:01.736Z,85.4
2023-03-04T00:07:02.254Z,85.5
2023-03-04T00:08:01.635Z,85.5
2023-03-04T00:09:02.118Z,85.5
2023-03-04T00:10:03.336Z,85.6
2023-03-04T00:11:02.108Z,85.6
2023-03-04T00:12:01.552Z,85.7
2023-03-04T00:13:02.133Z,85.6
2023-03-04T00:14:03.236Z,85.6
2023-03-04T00:15:03.735Z,85.6
2023-03-04T00:16:03.201Z,85.6
2023-03-04T00:17:01.954Z,85.6
2023-03-04T00:18:03.077Z,85.5
2023-03-04T00:19:01.875Z,85.5
2023-03-04T00:20:01.395Z,85.6
2023-03-04T00:21:01.897Z,85.6
2023-03-04T00:22:01.431Z,85.5
2023-03-04T00:23:03.552Z,85.7
2023-03-04T00:24:02.997Z,85.7
2023-03-04T00:25:03.466Z,85.7
2023-03-04T00:26:02.321Z,85.7
2023-03-04T00:27:01.719Z,85.7
2023-03-04T00:28:03.868Z,85.7
2023-03-04T00:29:01.730Z,85.7
2023-03-04T00:30:02.205Z,85.8
2023-03-04T00:31:01.659Z,85.8
2023-03-04T00:32:03.935Z,85.9
2023-03-04T00:33:03.299Z,85.8
2023-03-04T00:34:03.777Z,85.8
2023-03-04T00:35:01.556Z,85.9
2023-03-04T00:36:02.077Z,85.9
2023-03-04T00:37:01.659Z,85.9
2023-03-04T00:38:03.712Z,86
2023-03-04T00:39:03.145Z,86
2023-03-04T00:40:01.955Z,85.9
2023-03-04T00:41:01.484Z,85.9
2023-03-04T00:42:02.830Z,85.9
2023-03-04T00:43:01.551Z,85.9
2023-03-04T00:44:03.706Z,86
2023-03-04T00:45:01.502Z,85.9
2023-03-04T00:46:01.997Z,85.9
2023-03-04T00:47:01.494Z,86
2023-03-04T00:48:01.958Z,86.1
2023-03-04T00:49:01.396Z,86.1
2023-03-04T00:50:01.903Z,86
2023-03-04T00:51:01.429Z,86
2023-03-04T00:52:01.886Z,86
2023-03-04T00:53:02.988Z,86
2023-03-04T00:54:01.789Z,86
2023-03-04T00:55:02.277Z,86
2023-03-04T00:56:01.817Z,85.9
2023-03-04T00:57:02.357Z,86
2023-03-04T00:58:01.720Z,86
2023-03-04T00:59:02.202Z,86
2023-03-04T01:00:03.308Z,86
2023-03-04T01:01:02.127Z,85.9
2023-03-04T01:02:01.729Z,86
2023-03-04T01:03:02.134Z,86
2023-03-04T01:04:01.560Z,86.1
2023-03-04T01:05:02.066Z,86.1
2023-03-04T01:06:01.553Z,86.2
2023-03-04T01:07:02.026Z,86.1
2023-03-04T01:08:01.467Z,86.1
2023-03-04T01:09:01.952Z,86.2
2023-03-04T01:10:01.488Z,86.2
2023-03-04T01:11:01.955Z,86.2
2023-03-04T01:12:01.390Z,86.2
2023-03-04T01:13:01.881Z,86.1
2023-03-04T01:14:01.400Z,86.1
2023-03-04T01:15:01.874Z,86.1
2023-03-04T01:16:01.316Z,86.2
2023-03-04T01:17:01.911Z,86.2
2023-03-04T01:18:02.367Z,86.1
2023-03-04T01:19:03.390Z,86.1
2023-03-04T01:20:03.868Z,86.1
2023-03-04T01:21:01.709Z,86.1
2023-03-04T01:22:02.197Z,86.1
2023-03-04T01:23:03.312Z,86.2
2023-03-04T01:24:02.109Z,86.2
2023-03-04T01:25:03.295Z,86.2
2023-03-04T01:26:03.799Z,86.2
2023-03-04T01:27:01.566Z,86.1
2023-03-04T01:28:02.026Z,86.1
2023-03-04T01:29:01.549Z,86.1
2023-03-04T01:30:02.067Z,86.1
2023-03-04T01:31:03.236Z,86.1
2023-03-04T01:32:02.029Z,86.1
2023-03-04T01:33:01.495Z,86
2023-03-04T01:34:01.972Z,86
2023-03-04T01:35:01.387Z,86.1
2023-03-04T01:36:01.864Z,86.1
2023-03-04T01:37:02.992Z,86.1
2023-03-04T01:38:01.806Z,86.1
2023-03-04T01:39:02.293Z,86.1
2023-03-04T01:40:01.789Z,86.1
2023-03-04T01:41:02.283Z,86
2023-03-04T01:42:02.676Z,86
2023-03-04T01:43:03.099Z,86
2023-03-04T01:44:01.868Z,86
2023-03-04T01:45:01.388Z,86
2023-03-04T01:46:03.718Z,86
2023-03-04T01:47:02.993Z,86
2023-03-04T01:48:01.800Z,86
2023-03-04T01:49:02.376Z,86
2023-03-04T01:50:01.793Z,86
2023-03-04T01:51:03.945Z,86
2023-03-04T01:52:01.714Z,85.9
2023-03-04T01:53:02.229Z,85.9
2023-03-04T01:54:01.715Z,85.8
2023-03-04T01:55:02.132Z,85.8
2023-03-04T01:56:01.636Z,85.8
2023-03-04T01:57:02.124Z,85.8
2023-03-04T01:58:03.331Z,85.8
2023-03-04T01:59:03.810Z,85.7
2023-03-04T02:00:01.564Z,85.6
2023-03-04T02:01:02.034Z,85.6
2023-03-04T02:02:01.559Z,85.6
2023-03-04T02:03:02.032Z,85.6
2023-03-04T02:04:01.527Z,85.6
2023-03-04T02:05:02.066Z,85.6
2023-03-04T02:06:01.474Z,85.6
2023-03-04T02:07:01.955Z,85.6
2023-03-04T02:08:01.437Z,85.6
2023-03-04T02:09:01.884Z,85.6
2023-03-04T02:10:03.064Z,85.6
2023-03-04T02:11:01.876Z,85.7
2023-03-04T02:12:02.995Z,85.7
2023-03-04T02:13:01.816Z,85.7
2023-03-04T02:15:01.800Z,85.6
2023-03-04T02:16:02.310Z,85.7
2023-03-04T02:17:01.721Z,85.7
2023-03-04T02:18:03.888Z,85.7
2023-03-04T02:19:01.716Z,85.7
2023-03-04T02:20:02.192Z,85.7
2023-03-04T02:21:01.639Z,85.7
2023-03-04T02:22:03.798Z,85.7
2023-03-04T02:23:01.638Z,85.7
2023-03-04T02:24:02.158Z,85.8
2023-03-04T02:25:03.253Z,85.8
2023-03-04T02:26:02.131Z,85.7
2023-03-04T02:27:01.565Z,85.7
2023-03-04T02:28:02.080Z,85.7
2023-03-04T02:29:01.553Z,85.8
2023-03-04T02:30:02.036Z,85.8
2023-03-04T02:31:01.508Z,85.7
2023-03-04T02:32:01.973Z,85.7
2023-03-04T02:33:03.102Z,85.7
2023-03-04T02:34:01.954Z,85.8
2023-03-04T02:35:01.400Z,85.8
2023-03-04T02:36:01.878Z,85.8
2023-03-04T02:37:03.076Z,85.8
2023-03-04T02:38:01.873Z,85.8
2023-03-04T02:39:01.372Z,85.8
2023-03-04T02:40:03.461Z,85.8
2023-03-04T02:41:02.281Z,85.8
2023-03-04T02:42:02.680Z,85.8
2023-03-04T02:43:01.411Z,85.9
2023-03-04T02:44:03.579Z,85.9
2023-03-04T02:45:01.414Z,85.9
2023-03-04T02:46:01.867Z,85.9
2023-03-04T02:47:01.345Z,85.9
2023-03-04T02:48:01.792Z,85.8
2023-03-04T02:50:01.818Z,85.9
2023-03-04T02:51:02.293Z,85.9
2023-03-04T02:52:01.722Z,85.9
2023-03-04T02:53:02.206Z,85.9
2023-03-04T02:54:01.713Z,85.9
2023-03-04T02:55:03.893Z,86
2023-03-04T02:56:01.775Z,86
2023-03-04T02:57:02.133Z,86.1
2023-03-04T02:58:01.659Z,86.1
2023-03-04T02:59:02.110Z,86
2023-03-04T03:00:01.567Z,86
2023-03-04T03:01:02.032Z,86
2023-03-04T03:02:03.348Z,86.1
2023-03-04T03:03:02.236Z,86.1
2023-03-04T03:04:01.486Z,86.1
2023-03-04T03:05:01.996Z,86.1
2023-03-04T03:06:01.392Z,86.1
2023-03-04T03:07:01.973Z,86
2023-03-04T03:08:01.404Z,86
2023-03-04T03:09:01.883Z,86
2023-03-04T03:10:01.321Z,86
2023-03-04T03:11:01.872Z,86
2023-03-04T03:12:01.353Z,85.9
2023-03-04T03:13:03.475Z,86
2023-03-04T03:14:02.281Z,86
2023-03-04T03:15:01.821Z,86
2023-03-04T03:16:04.009Z,86
2023-03-04T03:17:01.736Z,85.9
2023-03-04T03:18:02.208Z,85.9
2023-03-04T03:19:01.645Z,85.9
2023-03-04T03:20:02.113Z,85.9
2023-03-04T03:21:01.632Z,85.8
2023-03-04T03:22:02.160Z,85.8
2023-03-04T03:23:01.563Z,85.7
2023-03-04T03:24:03.711Z,85.7
2023-03-04T03:25:03.255Z,85.7
2023-03-04T03:26:02.031Z,85.7
2023-03-04T03:27:01.507Z,85.7
2023-03-04T03:28:01.958Z,85.7
2023-03-04T03:29:01.512Z,85.7
2023-03-04T03:30:01.958Z,85.7
2023-03-04T03:31:01.470Z,85.7
2023-03-04T03:32:02.036Z,85.7
2023-03-04T03:33:01.398Z,85.8
2023-03-04T03:34:01.885Z,85.8
2023-03-04T03:35:01.417Z,85.8
2023-03-04T03:36:03.891Z,85.9
2023-03-04T03:37:03.013Z,85.8
2023-03-04T03:38:01.795Z,85.8
2023-03-04T03:39:02.274Z,85.8
2023-03-04T03:40:01.797Z,85.8
2023-03-04T03:41:02.193Z,85.8
2023-03-04T03:42:02.686Z,85.7
2023-03-04T03:43:01.431Z,85.7
2023-03-04T03:44:01.982Z,85.7
2023-03-04T03:45:03.071Z,85.7
2023-03-04T03:46:01.940Z,85.7
2023-03-04T03:47:01.318Z,85.6
2023-03-04T03:48:01.828Z,85.6
2023-03-04T03:49:02.270Z,85.6
2023-03-04T03:50:03.483Z,85.6
2023-03-04T03:51:02.277Z,85.5
2023-03-04T03:52:01.715Z,85.5
2023-03-04T03:53:02.226Z,85.4
2023-03-04T03:54:01.725Z,85.3
2023-03-04T03:55:03.884Z,85.2
2023-03-04T03:56:01.656Z,85.3
2023-03-04T03:57:02.119Z,85.3
2023-03-04T03:58:01.576Z,85.3
2023-03-04T03:59:03.783Z,85.5
2023-03-04T04:00:01.553Z,85.5
2023-03-04T04:01:03.732Z,85.6
2023-03-04T04:02:01.938Z,85.5
2023-03-04T04:03:02.093Z,85.5
2023-03-04T04:04:01.471Z,85.5
2023-03-04T04:05:01.985Z,85.4
2023-03-04T04:06:01.395Z,85.5
2023-03-04T04:07:01.897Z,85.5
2023-03-04T04:08:01.398Z,85.4
2023-03-04T04:09:03.554Z,85.4
2023-03-04T04:10:01.304Z,85.5
2023-03-04T04:11:01.788Z,85.5
2023-03-04T04:12:02.291Z,85.5
2023-03-04T04:13:01.805Z,85.5
2023-03-04T04:14:02.271Z,85.5
2023-03-04T04:15:01.723Z,85.5
2023-03-04T04:16:02.300Z,85.4
2023-03-04T04:17:01.779Z,85.4
2023-03-04T04:18:03.880Z,85.4
2023-03-04T04:19:01.635Z,85.4
2023-03-04T04:20:03.788Z,85.4
2023-03-04T04:21:01.651Z,85.4
2023-03-04T04:22:02.131Z,85.5
2023-03-04T04:23:03.236Z,85.4
2023-03-04T04:24:02.031Z,85.4
2023-03-04T04:25:01.472Z,85.4
2023-03-04T04:26:02.045Z,85.4
2023-03-04T04:27:03.174Z,85.4
2023-03-04T04:28:01.947Z,85.4
2023-03-04T04:29:01.390Z,85.4
2023-03-04T04:30:01.866Z,85.4
2023-03-04T04:31:01.435Z,85.4
2023-03-04T04:32:01.907Z,85.3
2023-03-04T04:33:03.008Z,85.3
2023-03-04T04:34:01.790Z,85.2
2023-03-04T04:35:02.271Z,85.3
2023-03-04T04:36:01.734Z,85.3
2023-03-04T04:37:02.281Z,85.3
2023-03-04T04:38:03.424Z,85.2
2023-03-04T04:39:03.884Z,85.3
2023-03-04T04:40:01.635Z,85.3
2023-03-04T04:41:03.788Z,85.3
2023-03-04T04:42:01.637Z,85.4
2023-03-04T04:43:02.110Z,85.4
2023-03-04T04:44:01.645Z,85.5
2023-03-04T04:45:02.130Z,85.5
2023-03-04T04:46:01.660Z,85.4
2023-03-04T04:47:03.724Z,85.5
2023-03-04T04:48:01.473Z,85.6
2023-03-04T04:49:01.955Z,85.6
2023-03-04T04:50:01.515Z,85.7
2023-03-04T04:51:01.948Z,85.6
2023-03-04T04:52:01.420Z,85.6
2023-03-04T04:53:01.895Z,85.6
2023-03-04T04:54:01.304Z,85.6
2023-03-04T04:55:01.801Z,85.6
2023-03-04T04:56:02.268Z,85.5
2023-03-04T04:57:03.469Z,85.4
2023-03-04T04:58:03.971Z,85.4
2023-03-04T04:59:03.380Z,85.4
2023-03-04T05:00:02.201Z,85.4
2023-03-04T05:01:03.381Z,85.3
2023-03-04T05:02:02.203Z,85.3
2023-03-04T05:03:01.664Z,85.3
2023-03-04T05:04:02.142Z,85.4
2023-03-04T05:05:03.327Z,85.4
2023-03-04T05:06:02.108Z,85.3
2023-03-04T05:07:03.229Z,85.3
2023-03-04T05:08:02.137Z,85.3
2023-03-04T05:09:01.584Z,85.3
2023-03-04T05:10:03.710Z,85.4
2023-03-04T05:11:01.557Z,85.4
2023-03-04T05:12:02.061Z,85.3
2023-03-04T05:13:01.550Z,85.3
2023-03-04T05:14:02.059Z,85.2
2023-03-04T05:15:01.493Z,85.2
2023-03-04T05:16:02.050Z,85.2
2023-03-04T05:17:01.470Z,85.2
2023-03-04T05:18:01.954Z,85.2
2023-03-04T05:19:03.102Z,85.2
2023-03-04T05:20:01.883Z,85.2
2023-03-04T05:21:01.406Z,85.1
2023-03-04T05:22:01.871Z,85
2023-03-04T05:23:01.332Z,85
2023-03-04T05:24:01.811Z,85.1
2023-03-04T05:25:02.291Z,85
2023-03-04T05:26:01.798Z,85.1
2023-03-04T05:27:03.959Z,85.1
2023-03-04T05:28:03.470Z,85.1
2023-03-04T05:29:03.947Z,85
2023-03-04T05:30:03.410Z,84.9
2023-03-04T05:31:02.314Z,84.9
2023-03-04T05:32:03.418Z,84.9
2023-03-04T05:33:02.188Z,84.9
2023-03-04T05:34:01.642Z,84.9
2023-03-04T05:35:02.138Z,84.8
2023-03-04T05:36:03.335Z,84.9
2023-03-04T05:37:02.127Z,84.8
2023-03-04T05:38:01.556Z,84.8
2023-03-04T05:39:02.040Z,84.8
2023-03-04T05:40:01.588Z,84.8
2023-03-04T05:41:03.738Z,84.8
2023-03-04T05:42:01.562Z,84.8
2023-03-04T05:43:02.045Z,84.9
2023-03-04T05:44:01.547Z,84.9
2023-03-04T05:45:02.103Z,84.9
2023-03-04T05:46:03.217Z,84.9
2023-03-04T05:47:01.966Z,84.9
2023-03-04T05:48:01.401Z,84.9
2023-03-04T05:49:01.884Z,84.9
2023-03-04T05:50:01.416Z,84.9
2023-03-04T05:51:01.906Z,84.9
2023-03-04T05:52:01.315Z,84.9
2023-03-04T05:53:01.792Z,84.9
2023-03-04T05:54:02.276Z,84.9
2023-03-04T05:55:01.742Z,84.9
2023-03-04T05:56:02.201Z,84.9
2023-03-04T05:57:01.723Z,84.8
2023-03-04T05:58:02.204Z,84.8
2023-03-04T05:59:03.315Z,84.8
2023-03-04T06:00:02.169Z,84.7
2023-03-04T06:01:01.632Z,84.6
2023-03-04T06:02:02.137Z,84.6
2023-03-04T06:03:01.697Z,84.5
2023-03-04T06:04:02.133Z,84.4
2023-03-04T06:05:03.182Z,84.4
2023-03-04T06:06:03.630Z,84.5
2023-03-04T06:07:01.479Z,84.5
2023-03-04T06:08:01.961Z,84.4
2023-03-04T06:09:01.407Z,84.4
2023-03-04T06:10:01.886Z,84.4
2023-03-04T06:11:01.421Z,84.4
2023-03-04T06:12:01.911Z,84.4
2023-03-04T06:13:03.015Z,84.5
2023-03-04T06:14:01.860Z,84.5
2023-03-04T06:15:02.276Z,84.5
2023-03-04T06:16:01.949Z,84.5
2023-03-04T06:17:02.309Z,84.6
2023-03-04T06:18:01.743Z,84.5
2023-03-04T06:19:03.873Z,84.6
2023-03-04T06:20:01.719Z,84.6
2023-03-04T06:21:02.222Z,84.5
2023-03-04T06:22:01.642Z,84.3
2023-03-04T06:23:02.164Z,84.4
2023-03-04T06:24:01.637Z,84.4
2023-03-04T06:25:03.798Z,84.4
2023-03-04T06:26:01.575Z,84.3
2023-03-04T06:27:03.714Z,84.3
2023-03-04T06:28:01.607Z,84.4
2023-03-04T06:29:03.715Z,84.4
2023-03-04T06:30:03.156Z,84.5
2023-03-04T06:31:02.149Z,84.5
2023-03-04T06:32:03.190Z,84.4
2023-03-04T06:33:02.007Z,84.4
2023-03-04T06:34:01.407Z,84.4
2023-03-04T06:35:01.908Z,84.3
2023-03-04T06:36:01.447Z,84.2
2023-03-04T06:37:01.891Z,84.1
2023-03-04T06:38:01.368Z,84.1
2023-03-04T06:39:01.890Z,84.1
2023-03-04T06:40:01.330Z,84
2023-03-04T06:41:01.796Z,84
2023-03-04T06:42:02.284Z,84
2023-03-04T06:43:01.746Z,84
2023-03-04T06:44:02.233Z,83.9
2023-03-04T06:45:01.722Z,83.8
2023-03-04T06:46:02.203Z,83.9
2023-03-04T06:47:03.313Z,83.9
2023-03-04T06:48:03.811Z,83.7
2023-03-04T06:49:03.284Z,83.6
2023-03-04T06:50:02.056Z,83.7
2023-03-04T06:51:03.268Z,83.7
2023-03-04T06:52:02.051Z,83.6
2023-03-04T06:53:01.490Z,83.5
2023-03-04T06:54:02.044Z,83.6
2023-03-04T06:55:01.510Z,83.5
2023-03-04T06:56:01.975Z,83.4
2023-03-04T06:57:03.085Z,83.4
2023-03-04T06:58:01.977Z,83.3
2023-03-04T06:59:01.416Z,83.2
2023-03-04T07:00:03.606Z,83.3
2023-03-04T07:01:01.504Z,83.3
2023-03-04T07:02:01.819Z,83
2023-03-04T07:03:02.294Z,83
2023-03-04T07:04:01.845Z,83
2023-03-04T07:05:02.289Z,83
2023-03-04T07:06:01.749Z,82.9
2023-03-04T07:07:03.969Z,82.9
2023-03-04T07:08:01.729Z,82.9
2023-03-04T07:09:02.213Z,82.8
2023-03-04T07:10:01.665Z,82.8
2023-03-04T07:11:02.154Z,82.7
2023-03-04T07:12:01.646Z,82.6
2023-03-04T07:13:02.130Z,82.7
2023-03-04T07:14:01.690Z,82.6
2023-03-04T07:15:02.140Z,82.7
2023-03-04T07:16:01.622Z,82.7
2023-03-04T07:17:02.078Z,82.5
2023-03-04T07:18:03.252Z,82.6
2023-03-04T07:19:03.730Z,82.5
2023-03-04T07:20:01.589Z,82.5
2023-03-04T07:21:02.094Z,82.5
2023-03-04T07:22:01.495Z,82.3
2023-03-04T07:23:01.991Z,82.3
2023-03-04T07:24:01.489Z,82.2
2023-03-04T07:25:03.645Z,82.4
2023-03-04T07:26:01.535Z,82.5
2023-03-04T07:27:01.986Z,82.5
2023-03-04T07:28:01.409Z,82.3
2023-03-04T07:29:03.576Z,82.3
2023-03-04T07:30:01.415Z,82.3
2023-03-04T07:31:01.898Z,82.4
2023-03-04T07:32:01.570Z,82.3
2023-03-04T07:33:01.892Z,82.2
2023-03-04T07:34:01.354Z,82.2
2023-03-04T07:35:01.809Z,82.1
2023-03-04T07:36:02.314Z,82.1
2023-03-04T07:37:01.814Z,82.2
2023-03-04T07:38:02.306Z,82.1
2023-03-04T07:39:01.807Z,82.1
2023-03-04T07:40:02.315Z,82.1
2023-03-04T07:41:03.433Z,82
2023-03-04T07:42:03.876Z,82
2023-03-04T07:43:01.653Z,82
2023-03-04T07:44:02.207Z,81.9
2023-03-04T07:45:01.651Z,81.9
2023-03-04T07:46:03.854Z,81.8
2023-03-04T07:47:01.587Z,81.9
2023-03-04T07:48:02.049Z,81.7
2023-03-04T07:49:01.571Z,81.6
2023-03-04T07:50:02.036Z,81.5
2023-03-04T07:51:03.172Z,81.4
2023-03-04T07:52:01.997Z,81.4
2023-03-04T07:53:03.160Z,81.3
2023-03-04T07:54:03.643Z,81.2
2023-03-04T07:55:03.128Z,81.3
2023-03-04T07:56:02.762Z,81.2
2023-03-04T07:57:01.409Z,81.3
2023-03-04T07:58:01.885Z,81.3
2023-03-04T07:59:01.334Z,81.2
2023-03-04T08:00:01.854Z,81.2
2023-03-04T08:01:02.315Z,81.3
2023-03-04T08:02:01.803Z,81.3
2023-03-04T08:03:02.286Z,81.2
2023-03-04T08:04:01.810Z,81.3
2023-03-04T08:05:02.210Z,81.2
2023-03-04T08:06:01.721Z,81
2023-03-04T08:07:03.880Z,80.7
2023-03-04T08:08:01.656Z,80.8
2023-03-04T08:09:02.176Z,80.8
2023-03-04T08:10:03.310Z,80.6
2023-03-04T08:11:02.175Z,80.5
2023-03-04T08:12:01.567Z,80.4
2023-03-04T08:13:02.043Z,80.4
2023-03-04T08:14:01.560Z,80.3
2023-03-04T08:15:03.726Z,80.4
2023-03-04T08:16:01.582Z,80.4
2023-03-04T08:17:01.959Z,80.6
2023-03-04T08:18:03.154Z,80.3
2023-03-04T08:19:02.072Z,80.5
2023-03-04T08:20:01.405Z,80.4
2023-03-04T08:21:01.913Z,80.6
2023-03-04T08:22:01.404Z,80.5
2023-03-04T08:23:01.873Z,80.7
2023-03-04T08:24:01.392Z,80.6
2023-03-04T08:25:03.480Z,80.6
2023-03-04T08:26:01.338Z,80.8
2023-03-04T08:27:01.797Z,80.4
2023-03-04T08:28:02.304Z,80.4
2023-03-04T08:29:01.789Z,80.7
2023-03-04T08:30:02.296Z,80.3
2023-03-04T08:31:01.778Z,80.1
2023-03-04T08:32:02.344Z,80.3
2023-03-04T08:33:01.780Z,80.1
2023-03-04T08:34:02.205Z,79.9
2023-03-04T08:35:01.650Z,80
2023-03-04T08:36:02.167Z,80.1
2023-03-04T08:37:03.304Z,80
2023-03-04T08:38:02.641Z,79.9
2023-03-04T08:39:03.237Z,80
2023-03-04T08:40:02.040Z,79.9
2023-03-04T08:41:01.566Z,79.7
2023-03-04T08:42:02.039Z,79.7
2023-03-04T08:43:03.247Z,79.7
2023-03-04T08:44:01.958Z,79.4
2023-03-04T08:45:01.497Z,79.5
2023-03-04T08:46:01.997Z,79.3
2023-03-04T08:47:01.393Z,79.3
2023-03-04T08:48:01.870Z,79.4
2023-03-04T08:49:01.420Z,79.3
2023-03-04T08:50:03.563Z,79.6
2023-03-04T08:51:01.332Z,79.3
2023-03-04T08:52:01.806Z,79.5
2023-03-04T08:53:02.278Z,79.1
2023-03-04T08:54:01.822Z,79.5
2023-03-04T08:55:02.294Z,79.3
2023-03-04T08:56:01.779Z,79.2
2023-03-04T08:57:02.203Z,79.3
2023-03-04T08:58:01.721Z,78.9
2023-03-04T08:59:02.218Z,79.1
2023-03-04T09:00:01.623Z,79
2023-03-04T09:01:02.104Z,79
2023-03-04T09:02:03.267Z,78.6
2023-03-04T09:03:03.959Z,78.5
2023-03-04T09:04:01.562Z,78.3
2023-03-04T09:05:02.059Z,78.1
2023-03-04T09:06:01.564Z,78.8
2023-03-04T09:07:02.032Z,78.9
2023-03-04T09:08:01.464Z,78.4
2023-03-04T09:09:03.633Z,78
2023-03-04T09:10:03.118Z,78.1
2023-03-04T09:11:01.953Z,77.8
2023-03-04T09:12:01.389Z,78.3
2023-03-04T09:13:01.884Z,78
2023-03-04T09:14:02.999Z,77.8
2023-03-04T09:15:11.267Z,78.2
2023-03-04T09:17:03.466Z,77.9
2023-03-04T09:18:02.288Z,78.3
2023-03-04T09:19:01.727Z,77.9
2023-03-04T09:20:04.371Z,77.6
2023-03-04T09:21:01.744Z,77.7
2023-03-04T09:22:02.226Z,78.1
2023-03-04T09:23:01.649Z,78
2023-03-04T09:24:02.119Z,77.7
2023-03-04T09:25:01.634Z,77.6
2023-03-04T09:26:02.129Z,77.1
2023-03-04T09:27:01.572Z,77.1
2023-03-04T09:28:02.058Z,76.8
2023-03-04T09:29:01.555Z,76.9
2023-03-04T09:30:02.046Z,77.4
2023-03-04T09:31:03.186Z,76.9
2023-03-04T09:32:02.060Z,77.1
2023-03-04T09:33:01.398Z,77.1
2023-03-04T09:34:03.563Z,77.2
2023-03-04T09:35:01.428Z,77.1
2023-03-04T09:36:03.554Z,77.5
2023-03-04T09:37:01.430Z,77.2
2023-03-04T09:38:03.560Z,77.3
2023-03-04T09:39:03.089Z,77.2
2023-03-04T09:40:01.883Z,76.9
2023-03-04T09:42:01.826Z,77.3
2023-03-04T09:43:02.293Z,77.3
2023-03-04T09:44:01.796Z,77.4
2023-03-04T09:45:03.893Z,77.3
2023-03-04T09:46:01.751Z,76.9
2023-03-04T09:47:03.887Z,77.5
2023-03-04T09:48:01.639Z,77.5
2023-03-04T09:49:02.134Z,77
2023-03-04T09:50:01.634Z,77.7
2023-03-04T09:51:02.151Z,78.1
2023-03-04T09:52:01.570Z,78.1
2023-03-04T09:53:02.041Z,77.7
2023-03-04T09:54:01.567Z,77.4
2023-03-04T09:55:04.375Z,76.8
2023-03-04T09:56:01.515Z,76.9
2023-03-04T09:57:01.988Z,77.6
2023-03-04T09:58:01.508Z,77.6
2023-03-04T09:59:01.999Z,77.1
2023-03-04T10:00:01.477Z,77.4
2023-03-04T10:01:04.129Z,77.1
2023-03-04T10:02:01.416Z,76.9
2023-03-04T10:03:01.906Z,76.6
2023-03-04T10:04:01.363Z,76.9
2023-03-04T10:05:01.918Z,77
2023-03-04T10:06:02.302Z,76.6
2023-03-04T10:07:01.796Z,76.7
2023-03-04T10:08:03.967Z,76.3
2023-03-04T10:09:01.736Z,76.6
2023-03-04T10:10:03.930Z,76.7
2023-03-04T10:11:01.811Z,76.5
2023-03-04T10:12:03.885Z,76.8
2023-03-04T10:13:01.649Z,77
2023-03-04T10:14:02.127Z,76.9
2023-03-04T10:15:01.642Z,77.3
2023-03-04T10:16:02.178Z,76.5
2023-03-04T10:17:01.564Z,76.7
2023-03-04T10:18:02.050Z,76.9
2023-03-04T10:19:01.484Z,77.3
2023-03-04T10:20:01.962Z,77.9
2023-03-04T10:21:03.180Z,77.2
2023-03-04T10:22:03.632Z,76.8
2023-03-04T10:23:01.475Z,76.8
2023-03-04T10:24:01.957Z,76.9
2023-03-04T10:25:01.401Z,76.5
2023-03-04T10:26:01.884Z,76.7
2023-03-04T10:27:03.096Z,76.8
2023-03-04T10:28:03.564Z,75.8
2023-03-04T10:29:01.328Z,76.6
2023-03-04T10:30:01.816Z,77
2023-03-04T10:31:02.269Z,76.5
2023-03-04T10:32:01.963Z,76.5
2023-03-04T10:33:02.311Z,76.9
2023-03-04T10:34:01.707Z,76.6
2023-03-04T10:35:02.188Z,76.8
2023-03-04T10:36:01.746Z,77
2023-03-04T10:37:02.211Z,77
2023-03-04T10:38:01.740Z,76.9
2023-03-04T10:39:02.194Z,76.9
2023-03-04T10:40:01.630Z,76.4
2023-03-04T10:41:03.787Z,76.1
2023-03-04T10:42:03.442Z,76.4
2023-03-04T10:43:02.038Z,76.8
2023-03-04T10:44:01.537Z,76.1
2023-03-04T10:45:02.060Z,76.2
2023-03-04T10:46:01.552Z,76.7
2023-03-04T10:47:01.976Z,77.1
2023-03-04T10:48:01.474Z,76.5
2023-03-04T10:49:01.963Z,76.8
2023-03-04T10:50:01.402Z,76.7
2023-03-04T10:51:01.867Z,76.8
2023-03-04T10:52:01.396Z,76.9
2023-03-04T10:53:01.873Z,76.7
2023-03-04T10:54:01.365Z,76.7
2023-03-04T10:55:01.792Z,76.5
2023-03-04T10:56:02.268Z,76.5
2023-03-04T10:57:01.807Z,76.6
2023-03-04T10:58:03.850Z,76.7
2023-03-04T10:59:03.408Z,77
2023-03-04T11:00:02.189Z,77.4
2023-03-04T11:01:01.637Z,76.7
2023-03-04T11:02:03.777Z,76.8
2023-03-04T11:03:01.622Z,76.9
2023-03-04T11:04:02.191Z,76.5
2023-03-04T11:05:01.553Z,77
2023-03-04T11:06:02.020Z,76.5
2023-03-04T11:07:01.540Z,76.3
2023-03-04T11:08:02.019Z,76.6
2023-03-04T11:09:01.539Z,76.7
2023-03-04T11:10:02.073Z,76.7
2023-03-04T11:11:03.240Z,77.3
2023-03-04T11:12:02.019Z,77
2023-03-04T11:13:01.458Z,76.7
2023-03-04T11:14:02.010Z,76.6
2023-03-04T11:15:03.160Z,76.3
2023-03-04T11:16:01.966Z,76.6
2023-03-04T11:17:01.455Z,76.9
2023-03-04T11:18:03.617Z,77
2023-03-04T11:19:01.373Z,76.9
2023-03-04T11:20:01.947Z,76.6
2023-03-04T11:21:01.394Z,76.7
2023-03-04T11:22:01.855Z,76.7
2023-03-04T11:23:03.036Z,77.1
2023-03-04T11:24:01.867Z,76.6
2023-03-04T11:25:02.961Z,76.5
2023-03-04T11:26:01.775Z,76.6
2023-03-04T11:28:03.446Z,76.8
2023-03-04T11:29:02.266Z,76.4
2023-03-04T11:30:01.753Z,76.6
2023-03-04T11:31:02.259Z,76.6
2023-03-04T11:32:01.824Z,76.9
2023-03-04T11:33:02.176Z,76.4
2023-03-04T11:34:01.685Z,76.4
2023-03-04T11:35:02.216Z,76.7
2023-03-04T11:36:01.615Z,76.8
2023-03-04T11:37:02.101Z,76.6
2023-03-04T11:38:02.657Z,76.6
2023-03-04T11:39:02.178Z,76.2
2023-03-04T11:40:01.739Z,76.1
2023-03-04T11:41:02.179Z,76.3
2023-03-04T11:42:01.636Z,76.4
2023-03-04T11:43:03.800Z,76.5
2023-03-04T11:44:01.566Z,76.6
2023-03-04T11:45:02.050Z,76.2
2023-03-04T11:46:01.602Z,75.5
2023-03-04T11:47:02.034Z,76
2023-03-04T11:48:01.628Z,76.2
2023-03-04T11:49:02.090Z,76.2
2023-03-04T11:50:03.165Z,76
2023-03-04T11:51:01.968Z,76.3
2023-03-04T11:52:01.477Z,76.3
2023-03-04T11:53:01.970Z,76.7
2023-03-04T11:54:01.460Z,76.5
2023-03-04T11:55:01.885Z,76.1
2023-03-04T11:56:03.082Z,75.7
2023-03-04T11:57:03.551Z,76.1
2023-03-04T11:58:03.001Z,76.4
2023-03-04T11:59:01.821Z,75.8
2023-03-04T12:01:01.840Z,75.8
2023-03-04T12:02:02.276Z,75.8
2023-03-04T12:03:01.793Z,76
2023-03-04T12:04:02.400Z,76.1
2023-03-04T12:05:01.818Z,75.9
2023-03-04T12:06:03.917Z,75.6
2023-03-04T12:07:01.726Z,75.4
2023-03-04T12:08:03.921Z,75.7
2023-03-04T12:09:01.666Z,75.9
2023-03-04T12:10:02.159Z,76
2023-03-04T12:11:03.363Z,76
2023-03-04T12:12:02.152Z,76
2023-03-04T12:13:01.568Z,75.7
2023-03-04T12:14:03.713Z,75.7
2023-03-04T12:15:01.486Z,75.9
2023-03-04T12:16:02.108Z,75.7
2023-03-04T12:17:01.520Z,75.8
2023-03-04T12:18:01.963Z,75.5
2023-03-04T12:19:01.472Z,75.4
2023-03-04T12:20:01.995Z,75.7
2023-03-04T12:21:01.411Z,76
2023-03-04T12:22:01.885Z,75.6
2023-03-04T12:23:01.337Z,75.7
2023-03-04T12:24:01.792Z,75.7
2023-03-04T12:26:01.829Z,75.4
2023-03-04T12:27:02.289Z,75.6
2023-03-04T12:28:01.715Z,75.4
2023-03-04T12:29:03.874Z,76
2023-03-04T12:30:01.719Z,75.9
2023-03-04T12:31:02.245Z,75.5
2023-03-04T12:32:01.694Z,75.4
2023-03-04T12:33:02.109Z,75.6
2023-03-04T12:34:03.315Z,75.6
2023-03-04T12:35:03.791Z,75.2
2023-03-04T12:36:01.624Z,75.1
2023-03-04T12:37:02.043Z,75.3
2023-03-04T12:38:01.558Z,75.3
2023-03-04T12:39:02.046Z,75
2023-03-04T12:40:03.153Z,75.3
2023-03-04T12:41:01.961Z,75.7
2023-03-04T12:42:01.491Z,75.5
2023-03-04T12:43:01.954Z,75.5
2023-03-04T12:44:01.390Z,75.1
2023-03-04T12:45:03.551Z,75.5
2023-03-04T12:46:03.164Z,75.6
2023-03-04T12:47:01.816Z,75.2
2023-03-04T12:49:01.813Z,75.5
2023-03-04T12:50:02.270Z,75.4
2023-03-04T12:51:03.392Z,75.8
2023-03-04T12:52:02.191Z,75.7
2023-03-04T12:53:01.719Z,75.8
2023-03-04T12:54:02.225Z,75.3
2023-03-04T12:55:01.755Z,75.3
2023-03-04T12:56:02.201Z,75.1
2023-03-04T12:57:01.633Z,75.1
2023-03-04T12:58:02.138Z,75.3
2023-03-04T12:59:01.562Z,75.3
2023-03-04T13:00:02.052Z,75.6
2023-03-04T13:01:03.245Z,75.6
2023-03-04T13:02:04.434Z,75.7
2023-03-04T13:03:03.389Z,75.2
2023-03-04T13:04:01.978Z,74.9
2023-03-04T13:05:03.156Z,74.7
2023-03-04T13:06:01.958Z,74.8
2023-03-04T13:07:01.404Z,74.8
2023-03-04T13:08:01.890Z,75.3
2023-03-04T13:09:01.416Z,74.9
2023-03-04T13:10:01.871Z,75
2023-03-04T13:11:02.986Z,75.1
2023-03-04T13:12:01.798Z,75.5
2023-03-04T13:13:02.279Z,75.3
2023-03-04T13:14:01.821Z,75.1
2023-03-04T13:15:03.964Z,75.5
2023-03-04T13:16:01.738Z,75.3
2023-03-04T13:17:03.876Z,75.2
2023-03-04T13:18:01.740Z,75.3
2023-03-04T13:19:02.202Z,75.1
2023-03-04T13:20:01.634Z,75.2
2023-03-04T13:21:02.115Z,74.9
2023-03-04T13:22:01.630Z,75.6
2023-03-04T13:23:03.838Z,75.3
2023-03-04T13:24:01.562Z,74.8
2023-03-04T13:25:02.045Z,75.1
2023-03-04T13:26:01.558Z,75.2
2023-03-04T13:27:02.034Z,74.9
2023-03-04T13:28:01.474Z,74.7
2023-03-04T13:29:02.079Z,75.2
2023-03-04T13:30:01.473Z,75
2023-03-04T13:31:02.019Z,75.1
2023-03-04T13:32:03.186Z,74.5
2023-03-04T13:33:01.961Z,74.7